Аэропорт: Братск. Братск

ICAO: UIBB

METAR:
2019/05/25 20:00
UIBB 252000Z AUTO 09003MPS 9999 // NCD 03/01 Q1020 RMK QFE722/0962
METAR:
2019/05/25 18:24
TAF UIBB 251700Z 2518/2618 16003G08MPS 9999 NSC